sensor_id;sensor_type;location;lat;lon;timestamp;pressure;altitude;pressure_sealevel;temperature;humidity
43298;BME280;28892;55.640;37.532;2023-03-04T00:02:15;97042.84;;;-0.07;63.88
43298;BME280;28892;55.640;37.532;2023-03-04T00:04:41;97038.63;;;0.00;63.37
43298;BME280;28892;55.640;37.532;2023-03-04T00:07:07;97034.97;;;0.09;63.55
43298;BME280;28892;55.640;37.532;2023-03-04T00:09:58;97047.41;;;0.39;63.31
43298;BME280;28892;55.640;37.532;2023-03-04T00:12:23;97029.72;;;0.18;63.17
43298;BME280;28892;55.640;37.532;2023-03-04T00:14:49;97027.47;;;0.15;63.07
43298;BME280;28892;55.640;37.532;2023-03-04T00:17:15;97040.13;;;0.26;62.79
43298;BME280;28892;55.640;37.532;2023-03-04T00:19:43;97029.69;;;0.26;62.94
43298;BME280;28892;55.640;37.532;2023-03-04T00:26:02;97013.34;;;0.32;62.25
43298;BME280;28892;55.640;37.532;2023-03-04T00:28:28;97016.28;;;0.37;62.16
43298;BME280;28892;55.640;37.532;2023-03-04T00:30:53;97025.81;;;0.22;62.93
43298;BME280;28892;55.640;37.532;2023-03-04T00:33:19;97009.50;;;0.20;63.09
43298;BME280;28892;55.640;37.532;2023-03-04T00:35:45;97016.81;;;0.24;62.92
43298;BME280;28892;55.640;37.532;2023-03-04T00:38:11;97008.72;;;0.19;62.95
43298;BME280;28892;55.640;37.532;2023-03-04T00:40:36;97009.13;;;-0.09;63.67
43298;BME280;28892;55.640;37.532;2023-03-04T00:43:03;96995.81;;;-0.14;64.03
43298;BME280;28892;55.640;37.532;2023-03-04T00:45:29;96998.22;;;-0.12;64.24
43298;BME280;28892;55.640;37.532;2023-03-04T00:47:54;96993.47;;;-0.01;64.28
43298;BME280;28892;55.640;37.532;2023-03-04T00:50:20;96993.31;;;0.01;63.61
43298;BME280;28892;55.640;37.532;2023-03-04T00:52:46;96993.25;;;0.09;63.48
43298;BME280;28892;55.640;37.532;2023-03-04T00:55:12;96996.53;;;0.11;63.64
43298;BME280;28892;55.640;37.532;2023-03-04T00:57:38;97002.16;;;0.23;63.00
43298;BME280;28892;55.640;37.532;2023-03-04T01:00:06;96988.84;;;0.18;62.87
43298;BME280;28892;55.640;37.532;2023-03-04T01:02:32;97001.16;;;0.24;63.03
43298;BME280;28892;55.640;37.532;2023-03-04T01:04:57;96978.69;;;0.23;62.34
43298;BME280;28892;55.640;37.532;2023-03-04T01:07:23;97000.06;;;0.19;62.61
43298;BME280;28892;55.640;37.532;2023-03-04T01:09:49;96999.75;;;0.22;62.59
43298;BME280;28892;55.640;37.532;2023-03-04T01:12:14;96986.22;;;-0.22;63.30
43298;BME280;28892;55.640;37.532;2023-03-04T01:14:40;96988.50;;;-0.19;63.72
43298;BME280;28892;55.640;37.532;2023-03-04T01:17:06;96993.81;;;-0.60;65.04
43298;BME280;28892;55.640;37.532;2023-03-04T01:19:32;96997.19;;;-0.43;64.71
43298;BME280;28892;55.640;37.532;2023-03-04T01:21:58;96994.28;;;-0.48;65.04
43298;BME280;28892;55.640;37.532;2023-03-04T01:24:23;96991.56;;;-0.72;65.22
43298;BME280;28892;55.640;37.532;2023-03-04T01:26:49;96998.91;;;-1.33;67.15
43298;BME280;28892;55.640;37.532;2023-03-04T01:29:15;96999.22;;;-1.03;66.73
43298;BME280;28892;55.640;37.532;2023-03-04T01:31:40;96993.03;;;-0.77;66.22
43298;BME280;28892;55.640;37.532;2023-03-04T01:34:06;96973.69;;;-0.75;65.70
43298;BME280;28892;55.640;37.532;2023-03-04T01:36:35;96980.81;;;-0.77;65.57
43298;BME280;28892;55.640;37.532;2023-03-04T01:39:01;96979.81;;;-0.59;64.90
43298;BME280;28892;55.640;37.532;2023-03-04T01:41:27;96979.31;;;-0.54;65.11
43298;BME280;28892;55.640;37.532;2023-03-04T01:43:57;96979.16;;;-0.53;65.47
43298;BME280;28892;55.640;37.532;2023-03-04T01:46:25;96967.94;;;-0.62;65.52
43298;BME280;28892;55.640;37.532;2023-03-04T01:48:51;96980.34;;;-0.80;65.97
43298;BME280;28892;55.640;37.532;2023-03-04T01:51:19;96964.25;;;-0.92;66.85
43298;BME280;28892;55.640;37.532;2023-03-04T01:53:47;96980.16;;;-0.71;66.45
43298;BME280;28892;55.640;37.532;2023-03-04T01:56:18;96959.03;;;-0.84;66.86
43298;BME280;28892;55.640;37.532;2023-03-04T01:59:16;96963.56;;;-0.69;66.46
43298;BME280;28892;55.640;37.532;2023-03-04T02:01:50;96950.59;;;-0.94;67.27
43298;BME280;28892;55.640;37.532;2023-03-04T02:04:18;96960.81;;;-0.76;66.94
43298;BME280;28892;55.640;37.532;2023-03-04T02:06:45;96947.31;;;-0.72;66.63
43298;BME280;28892;55.640;37.532;2023-03-04T02:09:13;96931.84;;;-0.73;66.79
43298;BME280;28892;55.640;37.532;2023-03-04T02:11:39;96945.00;;;-0.66;66.76
43298;BME280;28892;55.640;37.532;2023-03-04T02:14:09;96944.00;;;-0.57;66.75
43298;BME280;28892;55.640;37.532;2023-03-04T02:16:36;96933.28;;;-0.54;66.55
43298;BME280;28892;55.640;37.532;2023-03-04T02:19:05;96932.06;;;-0.43;66.49
43298;BME280;28892;55.640;37.532;2023-03-04T02:21:32;96928.66;;;-0.44;66.30
43298;BME280;28892;55.640;37.532;2023-03-04T02:24:14;96922.41;;;-0.26;66.26
43298;BME280;28892;55.640;37.532;2023-03-04T02:26:43;96914.81;;;-0.36;66.15
43298;BME280;28892;55.640;37.532;2023-03-04T02:29:13;96906.47;;;-0.31;65.72
43298;BME280;28892;55.640;37.532;2023-03-04T02:31:42;96908.88;;;-0.21;65.44
43298;BME280;28892;55.640;37.532;2023-03-04T02:37:41;96899.91;;;-0.19;64.79
43298;BME280;28892;55.640;37.532;2023-03-04T02:40:33;96891.22;;;-0.11;65.30
43298;BME280;28892;55.640;37.532;2023-03-04T02:43:00;96880.25;;;0.02;64.79
43298;BME280;28892;55.640;37.532;2023-03-04T02:45:41;96876.66;;;-0.29;65.26
43298;BME280;28892;55.640;37.532;2023-03-04T02:48:20;96877.81;;;-0.31;65.26
43298;BME280;28892;55.640;37.532;2023-03-04T02:50:53;96867.41;;;-0.31;64.75
43298;BME280;28892;55.640;37.532;2023-03-04T02:53:20;96880.25;;;-0.30;65.18
43298;BME280;28892;55.640;37.532;2023-03-04T02:55:47;96867.28;;;-0.38;65.29
43298;BME280;28892;55.640;37.532;2023-03-04T02:58:14;96865.25;;;-0.59;65.41
43298;BME280;28892;55.640;37.532;2023-03-04T03:00:41;96865.03;;;-0.49;65.56
43298;BME280;28892;55.640;37.532;2023-03-04T03:03:14;96858.31;;;-0.44;65.56
43298;BME280;28892;55.640;37.532;2023-03-04T03:05:43;96871.19;;;-0.42;65.31
43298;BME280;28892;55.640;37.532;2023-03-04T03:08:09;96855.13;;;-0.54;65.42
43298;BME280;28892;55.640;37.532;2023-03-04T03:10:37;96859.31;;;-0.45;65.33
43298;BME280;28892;55.640;37.532;2023-03-04T03:13:05;96869.47;;;-0.58;65.85
43298;BME280;28892;55.640;37.532;2023-03-04T03:15:31;96855.09;;;-0.94;67.46
43298;BME280;28892;55.640;37.532;2023-03-04T03:17:57;96856.69;;;-0.76;66.98
43298;BME280;28892;55.640;37.532;2023-03-04T03:20:26;96851.25;;;-0.66;66.66
43298;BME280;28892;55.640;37.532;2023-03-04T03:22:52;96836.34;;;-0.73;66.71
43298;BME280;28892;55.640;37.532;2023-03-04T03:25:18;96847.09;;;-0.76;67.01
43298;BME280;28892;55.640;37.532;2023-03-04T03:27:44;96834.22;;;-0.69;66.80
43298;BME280;28892;55.640;37.532;2023-03-04T03:30:13;96835.91;;;-0.93;67.48
43298;BME280;28892;55.640;37.532;2023-03-04T03:32:39;96828.41;;;-0.88;67.30
43298;BME280;28892;55.640;37.532;2023-03-04T03:35:06;96826.09;;;-0.82;66.94
43298;BME280;28892;55.640;37.532;2023-03-04T03:37:32;96829.69;;;-1.57;69.10
43298;BME280;28892;55.640;37.532;2023-03-04T03:39:58;96829.69;;;-1.40;69.72
43298;BME280;28892;55.640;37.532;2023-03-04T03:42:24;96824.72;;;-1.02;68.32
43298;BME280;28892;55.640;37.532;2023-03-04T03:44:49;96825.47;;;-0.93;67.27
43298;BME280;28892;55.640;37.532;2023-03-04T03:47:15;96829.91;;;-0.93;67.72
43298;BME280;28892;55.640;37.532;2023-03-04T03:49:41;96833.41;;;-1.43;69.14
43298;BME280;28892;55.640;37.532;2023-03-04T03:52:07;96829.00;;;-1.25;69.22
43298;BME280;28892;55.640;37.532;2023-03-04T03:54:33;96815.28;;;-1.03;68.66
43298;BME280;28892;55.640;37.532;2023-03-04T03:56:59;96817.16;;;-0.80;68.06
43298;BME280;28892;55.640;37.532;2023-03-04T03:59:24;96802.59;;;-0.97;68.11
43298;BME280;28892;55.640;37.532;2023-03-04T04:01:50;96793.81;;;-1.05;68.72
43298;BME280;28892;55.640;37.532;2023-03-04T04:04:16;96795.25;;;-0.94;68.24
43298;BME280;28892;55.640;37.532;2023-03-04T04:06:42;96786.91;;;-0.89;68.59
43298;BME280;28892;55.640;37.532;2023-03-04T04:09:08;96781.72;;;-0.89;68.37
43298;BME280;28892;55.640;37.532;2023-03-04T04:11:33;96774.88;;;-0.82;68.02
43298;BME280;28892;55.640;37.532;2023-03-04T04:13:59;96780.72;;;-0.80;67.94
43298;BME280;28892;55.640;37.532;2023-03-04T04:16:25;96779.09;;;-0.81;68.27
43298;BME280;28892;55.640;37.532;2023-03-04T04:18:51;96776.19;;;-0.86;68.58
43298;BME280;28892;55.640;37.532;2023-03-04T04:21:16;96770.94;;;-0.78;68.22
43298;BME280;28892;55.640;37.532;2023-03-04T04:23:42;96761.22;;;-0.84;68.56
43298;BME280;28892;55.640;37.532;2023-03-04T04:26:08;96769.56;;;-0.65;67.68
43298;BME280;28892;55.640;37.532;2023-03-04T04:28:34;96768.22;;;-0.53;67.59
43298;BME280;28892;55.640;37.532;2023-03-04T04:30:59;96777.53;;;-0.35;66.78
43298;BME280;28892;55.640;37.532;2023-03-04T04:33:28;96759.31;;;-0.35;66.56
43298;BME280;28892;55.640;37.532;2023-03-04T04:35:53;96759.59;;;-0.30;66.37
43298;BME280;28892;55.640;37.532;2023-03-04T04:38:19;96767.97;;;-0.43;66.73
43298;BME280;28892;55.640;37.532;2023-03-04T04:40:45;96761.66;;;-0.49;67.03
43298;BME280;28892;55.640;37.532;2023-03-04T04:43:11;96756.31;;;-0.47;66.96
43298;BME280;28892;55.640;37.532;2023-03-04T04:45:36;96764.19;;;-0.32;66.58
43298;BME280;28892;55.640;37.532;2023-03-04T04:48:02;96759.53;;;-0.22;66.35
43298;BME280;28892;55.640;37.532;2023-03-04T04:50:31;96762.91;;;-0.13;66.47
43298;BME280;28892;55.640;37.532;2023-03-04T04:52:57;96746.97;;;-0.18;66.23
43298;BME280;28892;55.640;37.532;2023-03-04T04:55:23;96758.63;;;-0.61;67.03
43298;BME280;28892;55.640;37.532;2023-03-04T04:57:49;96748.88;;;-0.59;67.29
43298;BME280;28892;55.640;37.532;2023-03-04T05:00:15;96760.59;;;-0.31;66.93
43298;BME280;28892;55.640;37.532;2023-03-04T05:02:43;96765.66;;;-0.15;66.41
43298;BME280;28892;55.640;37.532;2023-03-04T05:05:09;96762.13;;;-0.45;67.04
43298;BME280;28892;55.640;37.532;2023-03-04T05:07:35;96746.31;;;-0.44;66.96
43298;BME280;28892;55.640;37.532;2023-03-04T05:10:01;96745.25;;;-0.26;66.93
43298;BME280;28892;55.640;37.532;2023-03-04T05:12:29;96739.41;;;-0.28;66.24
43298;BME280;28892;55.640;37.532;2023-03-04T05:14:55;96745.88;;;-0.24;66.56
43298;BME280;28892;55.640;37.532;2023-03-04T05:17:21;96753.34;;;-0.21;66.17
43298;BME280;28892;55.640;37.532;2023-03-04T05:19:47;96745.25;;;-0.26;66.37
43298;BME280;28892;55.640;37.532;2023-03-04T05:22:13;96757.41;;;-0.73;67.29
43298;BME280;28892;55.640;37.532;2023-03-04T05:24:41;96741.34;;;-1.17;68.88
43298;BME280;28892;55.640;37.532;2023-03-04T05:27:06;96743.13;;;-1.17;69.51
43298;BME280;28892;55.640;37.532;2023-03-04T05:29:32;96741.31;;;-1.08;69.48
43298;BME280;28892;55.640;37.532;2023-03-04T05:31:58;96736.09;;;-0.77;68.99
43298;BME280;28892;55.640;37.532;2023-03-04T05:34:30;96743.94;;;-1.17;69.44
43298;BME280;28892;55.640;37.532;2023-03-04T05:36:58;96730.78;;;-1.15;70.12
43298;BME280;28892;55.640;37.532;2023-03-04T05:39:24;96741.19;;;-1.15;70.80
43298;BME280;28892;55.640;37.532;2023-03-04T05:41:49;96733.00;;;-0.72;69.51
43298;BME280;28892;55.640;37.532;2023-03-04T05:44:15;96723.53;;;-0.41;68.19
43298;BME280;28892;55.640;37.532;2023-03-04T05:46:41;96745.03;;;-1.03;69.52
43298;BME280;28892;55.640;37.532;2023-03-04T05:49:07;96730.63;;;-0.82;69.61
43298;BME280;28892;55.640;37.532;2023-03-04T05:51:32;96728.97;;;-0.51;68.64
43298;BME280;28892;55.640;37.532;2023-03-04T05:54:05;96719.06;;;-0.79;68.76
43298;BME280;28892;55.640;37.532;2023-03-04T05:56:33;96726.41;;;-0.83;69.34
43298;BME280;28892;55.640;37.532;2023-03-04T05:58:59;96719.25;;;-0.58;68.59
43298;BME280;28892;55.640;37.532;2023-03-04T06:01:25;96703.28;;;-0.31;68.06
43298;BME280;28892;55.640;37.532;2023-03-04T06:03:53;96719.06;;;-0.56;67.64
43298;BME280;28892;55.640;37.532;2023-03-04T06:06:19;96705.41;;;-1.21;69.82
43298;BME280;28892;55.640;37.532;2023-03-04T06:08:45;96709.63;;;-0.57;68.94
43298;BME280;28892;55.640;37.532;2023-03-04T06:11:20;96701.72;;;-0.02;66.61
43298;BME280;28892;55.640;37.532;2023-03-04T06:13:49;96710.44;;;-0.33;67.05
43298;BME280;28892;55.640;37.532;2023-03-04T06:16:17;96697.41;;;-0.33;66.80
43298;BME280;28892;55.640;37.532;2023-03-04T06:18:48;96712.75;;;0.23;66.08
43298;BME280;28892;55.640;37.532;2023-03-04T06:21:14;96703.00;;;0.02;65.63
43298;BME280;28892;55.640;37.532;2023-03-04T06:23:42;96693.75;;;0.15;65.94
43298;BME280;28892;55.640;37.532;2023-03-04T06:26:09;96708.06;;;0.34;65.38
43298;BME280;28892;55.640;37.532;2023-03-04T06:28:41;96687.66;;;0.37;65.33
43298;BME280;28892;55.640;37.532;2023-03-04T06:31:14;96679.91;;;0.29;64.84
43298;BME280;28892;55.640;37.532;2023-03-04T06:33:40;96682.69;;;-0.03;65.84
43298;BME280;28892;55.640;37.532;2023-03-04T06:36:06;96684.59;;;-0.35;66.57
43298;BME280;28892;55.640;37.532;2023-03-04T06:38:32;96685.69;;;-0.52;67.76
43298;BME280;28892;55.640;37.532;2023-03-04T06:41:08;96689.78;;;-0.58;69.05
43298;BME280;28892;55.640;37.532;2023-03-04T06:43:34;96683.53;;;-0.72;68.80
43298;BME280;28892;55.640;37.532;2023-03-04T06:46:05;96676.22;;;-0.77;68.82
43298;BME280;28892;55.640;37.532;2023-03-04T06:48:31;96667.63;;;-0.77;68.79
43298;BME280;28892;55.640;37.532;2023-03-04T06:50:57;96665.50;;;-0.74;69.54
43298;BME280;28892;55.640;37.532;2023-03-04T06:53:32;96674.41;;;-1.00;69.91
43298;BME280;28892;55.640;37.532;2023-03-04T06:55:58;96651.25;;;-0.86;69.87
43298;BME280;28892;55.640;37.532;2023-03-04T06:58:24;96670.09;;;-0.14;68.44
43298;BME280;28892;55.640;37.532;2023-03-04T07:00:53;96656.38;;;0.22;66.89
43298;BME280;28892;55.640;37.532;2023-03-04T07:03:22;96663.09;;;0.17;66.00
43298;BME280;28892;55.640;37.532;2023-03-04T07:05:48;96650.19;;;-0.30;66.97
43298;BME280;28892;55.640;37.532;2023-03-04T07:08:14;96646.13;;;-0.33;67.97
43298;BME280;28892;55.640;37.532;2023-03-04T07:10:40;96637.78;;;-0.90;68.77
43298;BME280;28892;55.640;37.532;2023-03-04T07:13:08;96636.50;;;-0.71;69.38
43298;BME280;28892;55.640;37.532;2023-03-04T07:15:34;96639.63;;;-0.75;69.33
43298;BME280;28892;55.640;37.532;2023-03-04T07:18:00;96628.59;;;-1.09;70.96
43298;BME280;28892;55.640;37.532;2023-03-04T07:20:26;96625.16;;;-0.78;70.99
43298;BME280;28892;55.640;37.532;2023-03-04T07:22:55;96618.44;;;-0.49;70.29
43298;BME280;28892;55.640;37.532;2023-03-04T07:25:20;96619.06;;;-0.47;69.10
43298;BME280;28892;55.640;37.532;2023-03-04T07:27:46;96625.78;;;-0.52;69.52
43298;BME280;28892;55.640;37.532;2023-03-04T07:30:15;96622.81;;;-0.64;70.03
43298;BME280;28892;55.640;37.532;2023-03-04T07:32:44;96620.78;;;-0.54;70.26
43298;BME280;28892;55.640;37.532;2023-03-04T07:35:13;96620.06;;;-0.48;69.16
43298;BME280;28892;55.640;37.532;2023-03-04T07:37:45;96608.97;;;-1.11;70.64
43298;BME280;28892;55.640;37.532;2023-03-04T07:40:11;96609.09;;;-0.43;69.74
43298;BME280;28892;55.640;37.532;2023-03-04T07:42:38;96595.72;;;-0.40;68.47
43298;BME280;28892;55.640;37.532;2023-03-04T07:45:09;96603.94;;;-0.28;69.33
43298;BME280;28892;55.640;37.532;2023-03-04T07:47:35;96601.28;;;-0.43;68.64
43298;BME280;28892;55.640;37.532;2023-03-04T07:50:01;96605.28;;;-0.02;68.20
43298;BME280;28892;55.640;37.532;2023-03-04T07:52:30;96592.63;;;0.10;67.34
43298;BME280;28892;55.640;37.532;2023-03-04T07:54:55;96608.78;;;-0.10;67.64
43298;BME280;28892;55.640;37.532;2023-03-04T07:57:22;96588.31;;;-0.28;68.41
43298;BME280;28892;55.640;37.532;2023-03-04T07:59:50;96590.09;;;0.02;67.88
43298;BME280;28892;55.640;37.532;2023-03-04T08:02:16;96585.97;;;-0.08;67.26
43298;BME280;28892;55.640;37.532;2023-03-04T08:04:42;96595.78;;;0.05;67.27
43298;BME280;28892;55.640;37.532;2023-03-04T08:07:08;96576.25;;;-0.29;68.29
43298;BME280;28892;55.640;37.532;2023-03-04T08:09:33;96581.28;;;0.03;67.80
43298;BME280;28892;55.640;37.532;2023-03-04T08:11:59;96594.34;;;0.03;67.66
43298;BME280;28892;55.640;37.532;2023-03-04T08:14:25;96576.19;;;-0.21;68.20
43298;BME280;28892;55.640;37.532;2023-03-04T08:16:51;96570.63;;;0.12;67.66
43298;BME280;28892;55.640;37.532;2023-03-04T08:19:17;96575.75;;;0.58;66.52
43298;BME280;28892;55.640;37.532;2023-03-04T08:21:42;96568.25;;;0.33;66.35
43298;BME280;28892;55.640;37.532;2023-03-04T08:24:10;96569.50;;;0.37;66.25
43298;BME280;28892;55.640;37.532;2023-03-04T08:26:41;96587.41;;;0.25;66.70
43298;BME280;28892;55.640;37.532;2023-03-04T08:29:11;96570.25;;;0.31;66.43
43298;BME280;28892;55.640;37.532;2023-03-04T08:31:37;96563.19;;;0.46;65.95
43298;BME280;28892;55.640;37.532;2023-03-04T08:34:04;96571.03;;;0.31;66.22
43298;BME280;28892;55.640;37.532;2023-03-04T08:36:30;96557.84;;;-0.12;67.68
43298;BME280;28892;55.640;37.532;2023-03-04T08:38:57;96558.50;;;-0.10;67.91
43298;BME280;28892;55.640;37.532;2023-03-04T08:41:23;96557.59;;;0.12;67.27
43298;BME280;28892;55.640;37.532;2023-03-04T08:43:52;96553.44;;;0.03;67.00
43298;BME280;28892;55.640;37.532;2023-03-04T08:46:53;96553.09;;;-0.09;67.13
43298;BME280;28892;55.640;37.532;2023-03-04T08:49:30;96542.28;;;0.09;67.15
43298;BME280;28892;55.640;37.532;2023-03-04T08:51:56;96535.34;;;0.32;66.40
43298;BME280;28892;55.640;37.532;2023-03-04T08:54:22;96535.03;;;0.78;65.54
43298;BME280;28892;55.640;37.532;2023-03-04T08:56:50;96516.97;;;0.99;64.34
43298;BME280;28892;55.640;37.532;2023-03-04T08:59:23;96527.50;;;1.12;63.84
43298;BME280;28892;55.640;37.532;2023-03-04T09:01:54;96534.34;;;0.33;65.62
43298;BME280;28892;55.640;37.532;2023-03-04T09:04:20;96517.69;;;0.71;65.04
43298;BME280;28892;55.640;37.532;2023-03-04T09:06:46;96530.00;;;0.99;65.08
43298;BME280;28892;55.640;37.532;2023-03-04T09:09:12;96519.88;;;1.39;64.47
43298;BME280;28892;55.640;37.532;2023-03-04T09:11:44;96524.25;;;0.81;64.92
43298;BME280;28892;55.640;37.532;2023-03-04T09:14:10;96521.09;;;0.49;66.18
43298;BME280;28892;55.640;37.532;2023-03-04T09:16:36;96501.25;;;-0.04;67.42
43298;BME280;28892;55.640;37.532;2023-03-04T09:19:04;96500.84;;;0.15;66.13
43298;BME280;28892;55.640;37.532;2023-03-04T09:21:30;96495.25;;;0.33;65.59
43298;BME280;28892;55.640;37.532;2023-03-04T09:24:01;96506.53;;;-0.12;66.62
43298;BME280;28892;55.640;37.532;2023-03-04T09:26:33;96490.28;;;0.01;66.78
43298;BME280;28892;55.640;37.532;2023-03-04T09:29:27;96484.59;;;0.12;65.69
43298;BME280;28892;55.640;37.532;2023-03-04T09:31:55;96470.16;;;0.32;64.92
43298;BME280;28892;55.640;37.532;2023-03-04T09:34:21;96471.91;;;0.68;63.49
43298;BME280;28892;55.640;37.532;2023-03-04T09:36:50;96456.41;;;1.10;62.51
43298;BME280;28892;55.640;37.532;2023-03-04T09:39:15;96446.81;;;0.67;62.78
43298;BME280;28892;55.640;37.532;2023-03-04T09:41:46;96454.53;;;1.04;62.17
43298;BME280;28892;55.640;37.532;2023-03-04T09:44:20;96431.75;;;1.55;61.02
43298;BME280;28892;55.640;37.532;2023-03-04T09:46:47;96443.31;;;2.29;60.40
43298;BME280;28892;55.640;37.532;2023-03-04T09:49:18;96436.31;;;2.57;58.24
43298;BME280;28892;55.640;37.532;2023-03-04T09:54:31;96394.22;;;1.62;60.25
43298;BME280;28892;55.640;37.532;2023-03-04T09:57:26;96396.00;;;1.20;60.73
43298;BME280;28892;55.640;37.532;2023-03-04T10:00:15;96409.19;;;1.11;61.20
43298;BME280;28892;55.640;37.532;2023-03-04T10:05:58;96398.31;;;0.29;62.93
43298;BME280;28892;55.640;37.532;2023-03-04T10:14:56;96395.69;;;0.73;63.21
43298;BME280;28892;55.640;37.532;2023-03-04T10:20:25;96378.22;;;1.02;62.98
43298;BME280;28892;55.640;37.532;2023-03-04T10:23:14;96370.41;;;1.44;61.79
43298;BME280;28892;55.640;37.532;2023-03-04T10:28:40;96380.13;;;0.86;64.47
43298;BME280;28892;55.640;37.532;2023-03-04T10:31:33;96366.44;;;0.84;65.80
43298;BME280;28892;55.640;37.532;2023-03-04T10:34:05;96353.00;;;1.16;64.50
43298;BME280;28892;55.640;37.532;2023-03-04T10:36:46;96343.22;;;1.31;63.64
43298;BME280;28892;55.640;37.532;2023-03-04T10:39:21;96339.84;;;1.37;63.42
43298;BME280;28892;55.640;37.532;2023-03-04T10:42:27;96340.66;;;1.45;64.97
43298;BME280;28892;55.640;37.532;2023-03-04T10:45:01;96336.97;;;0.83;66.44
43298;BME280;28892;55.640;37.532;2023-03-04T10:47:30;96340.03;;;0.94;66.70
43298;BME280;28892;55.640;37.532;2023-03-04T10:49:59;96334.41;;;0.62;68.26
43298;BME280;28892;55.640;37.532;2023-03-04T10:52:27;96343.47;;;1.01;67.83
43298;BME280;28892;55.640;37.532;2023-03-04T10:55:03;96310.84;;;1.19;66.82
43298;BME280;28892;55.640;37.532;2023-03-04T10:57:36;96345.81;;;0.89;67.58
43298;BME280;28892;55.640;37.532;2023-03-04T11:02:47;96313.75;;;1.44;66.46
43298;BME280;28892;55.640;37.532;2023-03-04T11:10:20;96297.91;;;1.04;67.01
43298;BME280;28892;55.640;37.532;2023-03-04T11:13:02;96289.22;;;0.96;67.10
43298;BME280;28892;55.640;37.532;2023-03-04T11:16:05;96272.03;;;1.09;66.79
43298;BME280;28892;55.640;37.532;2023-03-04T11:21:05;96272.38;;;0.29;71.12
43298;BME280;28892;55.640;37.532;2023-03-04T11:26:03;96282.66;;;0.37;70.41
43298;BME280;28892;55.640;37.532;2023-03-04T11:28:46;96277.72;;;0.49;71.16
43298;BME280;28892;55.640;37.532;2023-03-04T11:31:20;96259.56;;;0.34;70.62
43298;BME280;28892;55.640;37.532;2023-03-04T11:33:57;96282.84;;;0.07;71.78
43298;BME280;28892;55.640;37.532;2023-03-04T11:39:51;96253.00;;;0.16;72.23
43298;BME280;28892;55.640;37.532;2023-03-04T11:42:47;96263.25;;;0.18;73.20
43298;BME280;28892;55.640;37.532;2023-03-04T11:52:19;96245.00;;;-0.11;74.03
43298;BME280;28892;55.640;37.532;2023-03-04T11:58:04;96236.53;;;0.09;74.33
43298;BME280;28892;55.640;37.532;2023-03-04T12:14:19;96200.03;;;-0.20;74.70
43298;BME280;28892;55.640;37.532;2023-03-04T12:17:23;96208.69;;;0.45;74.08
43298;BME280;28892;55.640;37.532;2023-03-04T12:20:28;96189.00;;;0.42;73.42
43298;BME280;28892;55.640;37.532;2023-03-04T12:31:44;96188.72;;;0.30;73.65
43298;BME280;28892;55.640;37.532;2023-03-04T12:34:37;96187.19;;;0.43;73.47
43298;BME280;28892;55.640;37.532;2023-03-04T12:51:24;96153.53;;;0.48;72.54
43298;BME280;28892;55.640;37.532;2023-03-04T12:57:13;96133.66;;;0.47;73.09
43298;BME280;28892;55.640;37.532;2023-03-04T13:05:41;96140.78;;;0.66;74.16
43298;BME280;28892;55.640;37.532;2023-03-04T13:16:57;96108.84;;;0.64;72.05
43298;BME280;28892;55.640;37.532;2023-03-04T13:20:10;96110.09;;;0.68;72.98
43298;BME280;28892;55.640;37.532;2023-03-04T13:25:43;96108.69;;;0.73;72.54
43298;BME280;28892;55.640;37.532;2023-03-04T13:28:29;96096.81;;;0.70;72.79
43298;BME280;28892;55.640;37.532;2023-03-04T13:36:05;96093.75;;;0.53;73.14
43298;BME280;28892;55.640;37.532;2023-03-04T13:38:41;96086.81;;;0.74;72.95
43298;BME280;28892;55.640;37.532;2023-03-04T13:41:45;96090.06;;;0.82;72.25
43298;BME280;28892;55.640;37.532;2023-03-04T13:44:33;96067.69;;;0.53;73.11
43298;BME280;28892;55.640;37.532;2023-03-04T13:47:38;96065.25;;;0.45;73.93
43298;BME280;28892;55.640;37.532;2023-03-04T13:50:27;96074.91;;;0.51;73.90
43298;BME280;28892;55.640;37.532;2023-03-04T13:52:59;96062.53;;;0.80;72.93
43298;BME280;28892;55.640;37.532;2023-03-04T13:55:39;96051.28;;;0.73;72.38
43298;BME280;28892;55.640;37.532;2023-03-04T13:58:19;96050.44;;;0.59;73.17
43298;BME280;28892;55.640;37.532;2023-03-04T14:00:52;96046.00;;;0.39;73.81
43298;BME280;28892;55.640;37.532;2023-03-04T14:03:27;96037.50;;;0.23;74.58
43298;BME280;28892;55.640;37.532;2023-03-04T14:06:20;96033.97;;;0.45;74.53
43298;BME280;28892;55.640;37.532;2023-03-04T14:08:51;96037.38;;;0.52;73.88
43298;BME280;28892;55.640;37.532;2023-03-04T14:11:40;96017.81;;;0.21;74.62
43298;BME280;28892;55.640;37.532;2023-03-04T14:14:14;96017.69;;;0.36;74.10
43298;BME280;28892;55.640;37.532;2023-03-04T14:16:53;96016.50;;;0.38;74.36
43298;BME280;28892;55.640;37.532;2023-03-04T14:19:42;96014.72;;;0.52;74.15
43298;BME280;28892;55.640;37.532;2023-03-04T14:22:45;96026.91;;;0.38;75.01
43298;BME280;28892;55.640;37.532;2023-03-04T14:27:46;96011.28;;;0.38;75.20
43298;BME280;28892;55.640;37.532;2023-03-04T14:30:26;96009.75;;;0.02;76.22
43298;BME280;28892;55.640;37.532;2023-03-04T14:32:55;96001.56;;;0.12;76.25
43298;BME280;28892;55.640;37.532;2023-03-04T14:35:28;95997.19;;;0.26;79.21
43298;BME280;28892;55.640;37.532;2023-03-04T14:38:17;95993.31;;;0.08;76.41
43298;BME280;28892;55.640;37.532;2023-03-04T14:40:49;95983.66;;;-0.05;76.27
43298;BME280;28892;55.640;37.532;2023-03-04T14:43:19;95984.81;;;-0.21;76.15
43298;BME280;28892;55.640;37.532;2023-03-04T14:45:58;95995.22;;;0.35;76.23
43298;BME280;28892;55.640;37.532;2023-03-04T14:48:32;95979.28;;;0.09;75.49
43298;BME280;28892;55.640;37.532;2023-03-04T14:51:02;95987.19;;;0.23;75.42
43298;BME280;28892;55.640;37.532;2023-03-04T14:53:30;95991.94;;;0.06;75.25
43298;BME280;28892;55.640;37.532;2023-03-04T14:56:04;95962.81;;;-0.05;76.07
43298;BME280;28892;55.640;37.532;2023-03-04T14:58:35;95969.88;;;0.15;75.90
43298;BME280;28892;55.640;37.532;2023-03-04T15:01:06;95983.31;;;0.12;75.55
43298;BME280;28892;55.640;37.532;2023-03-04T15:03:34;95971.09;;;0.06;75.91
43298;BME280;28892;55.640;37.532;2023-03-04T15:06:19;95949.94;;;-0.20;76.19
43298;BME280;28892;55.640;37.532;2023-03-04T15:08:47;95951.44;;;0.17;75.87
43298;BME280;28892;55.640;37.532;2023-03-04T15:11:27;95949.63;;;0.10;75.30